Terminal Aerodrome Forecast
Issued by NWS

Home | Current Version | Previous Version | Text Only | Print | Product List | Glossary Off
Versions: 1 2 3 4 5 6 7 8 9 10 11 12 13

000
FTUS43 KMPX 211700
TAFRWF
TAF
KRWF 211725Z 2118/2218 33021G28KT P6SM SKC
     FM220100 33011KT P6SM SKC
     FM220500 33004KT P6SM SKC
     FM221400 01005KT P6SM FEW250=

USA.gov is the U.S. government's official web portal to all federal, state and local government web resources and services.